sensor_id;sensor_type;location;lat;lon;timestamp;P1;durP1;ratioP1;P2;durP2;ratioP2
76459;SDS011;65299;46.084;18.762;2023-11-21T00:02:02;54.50;;;27.73;;
76459;SDS011;65299;46.084;18.762;2023-11-21T00:05:02;50.00;;;25.97;;
76459;SDS011;65299;46.084;18.762;2023-11-21T00:08:04;47.67;;;25.80;;
76459;SDS011;65299;46.084;18.762;2023-11-21T00:11:05;47.83;;;25.58;;
76459;SDS011;65299;46.084;18.762;2023-11-21T00:14:05;46.23;;;23.17;;
76459;SDS011;65299;46.084;18.762;2023-11-21T00:17:06;40.40;;;20.30;;
76459;SDS011;65299;46.084;18.762;2023-11-21T00:20:06;45.75;;;23.15;;
76459;SDS011;65299;46.084;18.762;2023-11-21T00:23:07;26.77;;;14.33;;
76459;SDS011;65299;46.084;18.762;2023-11-21T00:26:09;25.52;;;13.90;;
76459;SDS011;65299;46.084;18.762;2023-11-21T00:29:09;20.27;;;10.75;;
76459;SDS011;65299;46.084;18.762;2023-11-21T00:32:10;21.10;;;9.50;;
76459;SDS011;65299;46.084;18.762;2023-11-21T00:35:11;19.48;;;9.60;;
76459;SDS011;65299;46.084;18.762;2023-11-21T00:38:11;34.80;;;17.67;;
76459;SDS011;65299;46.084;18.762;2023-11-21T00:41:12;22.90;;;11.43;;
76459;SDS011;65299;46.084;18.762;2023-11-21T00:44:12;37.63;;;19.50;;
76459;SDS011;65299;46.084;18.762;2023-11-21T00:47:12;42.08;;;20.25;;
76459;SDS011;65299;46.084;18.762;2023-11-21T00:50:13;40.30;;;20.93;;
76459;SDS011;65299;46.084;18.762;2023-11-21T00:53:13;20.80;;;10.80;;
76459;SDS011;65299;46.084;18.762;2023-11-21T00:56:14;35.17;;;18.23;;
76459;SDS011;65299;46.084;18.762;2023-11-21T00:59:15;22.02;;;11.70;;
76459;SDS011;65299;46.084;18.762;2023-11-21T01:02:15;19.83;;;10.70;;
76459;SDS011;65299;46.084;18.762;2023-11-21T01:05:15;20.27;;;10.32;;
76459;SDS011;65299;46.084;18.762;2023-11-21T01:08:16;20.53;;;9.60;;
76459;SDS011;65299;46.084;18.762;2023-11-21T01:11:16;17.73;;;9.67;;
76459;SDS011;65299;46.084;18.762;2023-11-21T01:14:17;19.10;;;9.10;;
76459;SDS011;65299;46.084;18.762;2023-11-21T01:17:18;16.70;;;8.43;;
76459;SDS011;65299;46.084;18.762;2023-11-21T01:20:18;20.27;;;9.57;;
76459;SDS011;65299;46.084;18.762;2023-11-21T01:23:19;18.90;;;8.98;;
76459;SDS011;65299;46.084;18.762;2023-11-21T01:26:19;18.03;;;8.67;;
76459;SDS011;65299;46.084;18.762;2023-11-21T01:29:20;18.75;;;8.95;;
76459;SDS011;65299;46.084;18.762;2023-11-21T01:32:20;32.67;;;16.80;;
76459;SDS011;65299;46.084;18.762;2023-11-21T01:35:21;38.70;;;19.90;;
76459;SDS011;65299;46.084;18.762;2023-11-21T01:38:21;59.40;;;31.57;;
76459;SDS011;65299;46.084;18.762;2023-11-21T01:41:22;39.97;;;22.27;;
76459;SDS011;65299;46.084;18.762;2023-11-21T01:44:22;37.87;;;20.47;;
76459;SDS011;65299;46.084;18.762;2023-11-21T01:47:24;29.00;;;16.00;;
76459;SDS011;65299;46.084;18.762;2023-11-21T01:50:25;24.73;;;13.25;;
76459;SDS011;65299;46.084;18.762;2023-11-21T01:53:26;24.53;;;12.67;;
76459;SDS011;65299;46.084;18.762;2023-11-21T01:56:28;22.05;;;12.27;;
76459;SDS011;65299;46.084;18.762;2023-11-21T01:59:35;32.30;;;16.13;;
76459;SDS011;65299;46.084;18.762;2023-11-21T02:02:36;27.13;;;14.65;;
76459;SDS011;65299;46.084;18.762;2023-11-21T02:05:37;29.27;;;15.93;;
76459;SDS011;65299;46.084;18.762;2023-11-21T02:08:37;25.67;;;15.07;;
76459;SDS011;65299;46.084;18.762;2023-11-21T02:11:38;24.93;;;13.90;;
76459;SDS011;65299;46.084;18.762;2023-11-21T02:14:39;29.05;;;15.45;;
76459;SDS011;65299;46.084;18.762;2023-11-21T02:17:39;29.40;;;15.00;;
76459;SDS011;65299;46.084;18.762;2023-11-21T02:20:40;29.00;;;15.37;;
76459;SDS011;65299;46.084;18.762;2023-11-21T02:23:41;34.78;;;18.92;;
76459;SDS011;65299;46.084;18.762;2023-11-21T02:26:44;32.08;;;16.83;;
76459;SDS011;65299;46.084;18.762;2023-11-21T02:29:45;32.42;;;16.27;;
76459;SDS011;65299;46.084;18.762;2023-11-21T02:32:46;34.80;;;17.37;;
76459;SDS011;65299;46.084;18.762;2023-11-21T02:35:46;31.87;;;17.00;;
76459;SDS011;65299;46.084;18.762;2023-11-21T02:38:47;41.80;;;21.03;;
76459;SDS011;65299;46.084;18.762;2023-11-21T02:41:47;34.87;;;17.30;;
76459;SDS011;65299;46.084;18.762;2023-11-21T02:44:48;28.97;;;14.20;;
76459;SDS011;65299;46.084;18.762;2023-11-21T02:47:48;27.27;;;15.00;;
76459;SDS011;65299;46.084;18.762;2023-11-21T02:50:49;28.42;;;15.00;;
76459;SDS011;65299;46.084;18.762;2023-11-21T02:53:50;33.05;;;15.10;;
76459;SDS011;65299;46.084;18.762;2023-11-21T02:56:51;26.43;;;14.03;;
76459;SDS011;65299;46.084;18.762;2023-11-21T02:59:51;25.77;;;14.40;;
76459;SDS011;65299;46.084;18.762;2023-11-21T03:02:52;27.90;;;14.63;;
76459;SDS011;65299;46.084;18.762;2023-11-21T03:05:53;31.48;;;16.48;;
76459;SDS011;65299;46.084;18.762;2023-11-21T03:08:54;27.40;;;14.73;;
76459;SDS011;65299;46.084;18.762;2023-11-21T03:11:54;30.80;;;16.10;;
76459;SDS011;65299;46.084;18.762;2023-11-21T03:14:55;33.70;;;16.93;;
76459;SDS011;65299;46.084;18.762;2023-11-21T03:17:56;34.17;;;16.77;;
76459;SDS011;65299;46.084;18.762;2023-11-21T03:20:57;31.73;;;16.13;;
76459;SDS011;65299;46.084;18.762;2023-11-21T03:23:57;28.60;;;16.03;;
76459;SDS011;65299;46.084;18.762;2023-11-21T03:27:00;30.00;;;15.48;;
76459;SDS011;65299;46.084;18.762;2023-11-21T03:30:00;27.57;;;15.90;;
76459;SDS011;65299;46.084;18.762;2023-11-21T03:33:01;32.63;;;16.07;;
76459;SDS011;65299;46.084;18.762;2023-11-21T03:36:01;27.35;;;15.75;;
76459;SDS011;65299;46.084;18.762;2023-11-21T03:39:01;28.43;;;14.53;;
76459;SDS011;65299;46.084;18.762;2023-11-21T03:42:02;21.70;;;12.53;;
76459;SDS011;65299;46.084;18.762;2023-11-21T03:45:03;23.00;;;11.68;;
76459;SDS011;65299;46.084;18.762;2023-11-21T03:48:04;21.97;;;12.70;;
76459;SDS011;65299;46.084;18.762;2023-11-21T03:51:05;28.67;;;13.98;;
76459;SDS011;65299;46.084;18.762;2023-11-21T03:54:06;26.25;;;13.75;;
76459;SDS011;65299;46.084;18.762;2023-11-21T03:57:06;34.93;;;14.57;;
76459;SDS011;65299;46.084;18.762;2023-11-21T04:00:06;27.53;;;14.57;;
76459;SDS011;65299;46.084;18.762;2023-11-21T04:03:10;30.27;;;15.23;;
76459;SDS011;65299;46.084;18.762;2023-11-21T04:06:11;25.93;;;14.20;;
76459;SDS011;65299;46.084;18.762;2023-11-21T04:09:11;26.17;;;14.00;;
76459;SDS011;65299;46.084;18.762;2023-11-21T04:12:12;20.25;;;12.57;;
76459;SDS011;65299;46.084;18.762;2023-11-21T04:15:13;25.38;;;13.77;;
76459;SDS011;65299;46.084;18.762;2023-11-21T04:18:14;23.17;;;12.80;;
76459;SDS011;65299;46.084;18.762;2023-11-21T04:21:14;24.83;;;13.63;;
76459;SDS011;65299;46.084;18.762;2023-11-21T04:24:15;24.50;;;13.50;;
76459;SDS011;65299;46.084;18.762;2023-11-21T04:27:15;27.08;;;12.55;;
76459;SDS011;65299;46.084;18.762;2023-11-21T04:30:18;23.13;;;12.67;;
76459;SDS011;65299;46.084;18.762;2023-11-21T04:33:18;24.65;;;13.07;;
76459;SDS011;65299;46.084;18.762;2023-11-21T04:36:19;27.80;;;13.20;;
76459;SDS011;65299;46.084;18.762;2023-11-21T04:39:19;24.77;;;13.02;;
76459;SDS011;65299;46.084;18.762;2023-11-21T04:42:20;26.53;;;13.03;;
76459;SDS011;65299;46.084;18.762;2023-11-21T04:45:20;24.30;;;13.27;;
76459;SDS011;65299;46.084;18.762;2023-11-21T04:48:21;25.87;;;14.53;;
76459;SDS011;65299;46.084;18.762;2023-11-21T04:51:21;28.17;;;14.53;;
76459;SDS011;65299;46.084;18.762;2023-11-21T04:54:21;29.25;;;15.32;;
76459;SDS011;65299;46.084;18.762;2023-11-21T04:57:22;29.67;;;16.30;;
76459;SDS011;65299;46.084;18.762;2023-11-21T05:00:22;35.33;;;17.03;;
76459;SDS011;65299;46.084;18.762;2023-11-21T05:03:23;26.53;;;15.67;;
76459;SDS011;65299;46.084;18.762;2023-11-21T05:06:23;46.22;;;20.13;;
76459;SDS011;65299;46.084;18.762;2023-11-21T05:09:24;35.07;;;19.27;;
76459;SDS011;65299;46.084;18.762;2023-11-21T05:12:25;28.85;;;16.55;;
76459;SDS011;65299;46.084;18.762;2023-11-21T05:15:25;105.37;;;56.87;;
76459;SDS011;65299;46.084;18.762;2023-11-21T05:18:27;40.97;;;21.27;;
76459;SDS011;65299;46.084;18.762;2023-11-21T05:21:29;34.75;;;16.25;;
76459;SDS011;65299;46.084;18.762;2023-11-21T05:24:33;31.67;;;15.48;;
76459;SDS011;65299;46.084;18.762;2023-11-21T05:27:34;40.13;;;20.50;;
76459;SDS011;65299;46.084;18.762;2023-11-21T05:30:35;46.58;;;23.83;;
76459;SDS011;65299;46.084;18.762;2023-11-21T05:33:35;70.33;;;39.57;;
76459;SDS011;65299;46.084;18.762;2023-11-21T05:36:35;72.57;;;39.53;;
76459;SDS011;65299;46.084;18.762;2023-11-21T05:39:36;86.57;;;47.70;;
76459;SDS011;65299;46.084;18.762;2023-11-21T05:42:36;82.53;;;44.92;;
76459;SDS011;65299;46.084;18.762;2023-11-21T05:45:38;53.73;;;28.37;;
76459;SDS011;65299;46.084;18.762;2023-11-21T05:48:39;41.35;;;22.05;;
76459;SDS011;65299;46.084;18.762;2023-11-21T05:51:39;68.40;;;33.87;;
76459;SDS011;65299;46.084;18.762;2023-11-21T05:54:40;70.53;;;31.50;;
76459;SDS011;65299;46.084;18.762;2023-11-21T05:57:40;49.77;;;26.90;;
76459;SDS011;65299;46.084;18.762;2023-11-21T06:00:43;29.48;;;14.93;;
76459;SDS011;65299;46.084;18.762;2023-11-21T06:03:43;24.07;;;12.87;;
76459;SDS011;65299;46.084;18.762;2023-11-21T06:06:43;19.63;;;10.30;;
76459;SDS011;65299;46.084;18.762;2023-11-21T06:09:44;22.87;;;11.97;;
76459;SDS011;65299;46.084;18.762;2023-11-21T06:12:44;18.07;;;9.43;;
76459;SDS011;65299;46.084;18.762;2023-11-21T06:15:45;22.50;;;11.97;;
76459;SDS011;65299;46.084;18.762;2023-11-21T06:18:45;43.20;;;21.42;;
76459;SDS011;65299;46.084;18.762;2023-11-21T06:21:46;16.33;;;7.00;;
76459;SDS011;65299;46.084;18.762;2023-11-21T06:24:47;14.13;;;7.50;;
76459;SDS011;65299;46.084;18.762;2023-11-21T06:27:47;19.90;;;10.33;;
76459;SDS011;65299;46.084;18.762;2023-11-21T06:30:48;34.72;;;14.30;;
76459;SDS011;65299;46.084;18.762;2023-11-21T06:33:50;41.17;;;16.17;;
76459;SDS011;65299;46.084;18.762;2023-11-21T06:36:52;30.52;;;13.95;;
76459;SDS011;65299;46.084;18.762;2023-11-21T06:39:52;28.27;;;12.73;;
76459;SDS011;65299;46.084;18.762;2023-11-21T06:42:53;34.42;;;14.80;;
76459;SDS011;65299;46.084;18.762;2023-11-21T06:45:53;54.90;;;21.77;;
76459;SDS011;65299;46.084;18.762;2023-11-21T06:48:54;60.53;;;22.93;;
76459;SDS011;65299;46.084;18.762;2023-11-21T06:51:55;58.47;;;26.63;;
76459;SDS011;65299;46.084;18.762;2023-11-21T06:54:56;59.80;;;25.55;;
76459;SDS011;65299;46.084;18.762;2023-11-21T06:57:56;140.10;;;35.97;;
76459;SDS011;65299;46.084;18.762;2023-11-21T07:00:58;152.75;;;33.40;;
76459;SDS011;65299;46.084;18.762;2023-11-21T07:03:58;226.07;;;49.97;;
76459;SDS011;65299;46.084;18.762;2023-11-21T07:06:59;102.03;;;27.63;;
76459;SDS011;65299;46.084;18.762;2023-11-21T07:09:59;40.13;;;14.73;;
76459;SDS011;65299;46.084;18.762;2023-11-21T07:13:03;39.60;;;15.20;;
76459;SDS011;65299;46.084;18.762;2023-11-21T07:16:03;66.07;;;18.55;;
76459;SDS011;65299;46.084;18.762;2023-11-21T07:19:05;44.92;;;16.33;;
76459;SDS011;65299;46.084;18.762;2023-11-21T07:22:08;19.27;;;8.00;;
76459;SDS011;65299;46.084;18.762;2023-11-21T07:25:09;18.80;;;7.95;;
76459;SDS011;65299;46.084;18.762;2023-11-21T07:28:10;33.17;;;15.17;;
76459;SDS011;65299;46.084;18.762;2023-11-21T07:31:10;31.00;;;16.35;;
76459;SDS011;65299;46.084;18.762;2023-11-21T07:34:10;17.13;;;9.33;;
76459;SDS011;65299;46.084;18.762;2023-11-21T07:37:12;14.80;;;7.32;;
76459;SDS011;65299;46.084;18.762;2023-11-21T07:40:13;15.13;;;7.87;;
76459;SDS011;65299;46.084;18.762;2023-11-21T07:43:13;24.20;;;12.67;;
76459;SDS011;65299;46.084;18.762;2023-11-21T07:46:14;19.40;;;12.38;;
76459;SDS011;65299;46.084;18.762;2023-11-21T07:49:14;7.00;;;4.03;;
76459;SDS011;65299;46.084;18.762;2023-11-21T07:52:16;11.98;;;6.22;;
76459;SDS011;65299;46.084;18.762;2023-11-21T07:55:16;17.57;;;10.47;;
76459;SDS011;65299;46.084;18.762;2023-11-21T07:58:16;25.23;;;14.53;;
76459;SDS011;65299;46.084;18.762;2023-11-21T08:01:17;19.37;;;10.30;;
76459;SDS011;65299;46.084;18.762;2023-11-21T08:04:17;26.60;;;14.38;;
76459;SDS011;65299;46.084;18.762;2023-11-21T08:07:18;23.40;;;13.00;;
76459;SDS011;65299;46.084;18.762;2023-11-21T08:10:19;22.23;;;12.38;;
76459;SDS011;65299;46.084;18.762;2023-11-21T08:13:22;13.63;;;6.78;;
76459;SDS011;65299;46.084;18.762;2023-11-21T08:16:30;9.00;;;6.33;;
76459;SDS011;65299;46.084;18.762;2023-11-21T08:19:30;7.07;;;3.08;;
76459;SDS011;65299;46.084;18.762;2023-11-21T08:22:32;9.33;;;4.07;;
76459;SDS011;65299;46.084;18.762;2023-11-21T08:25:34;9.13;;;4.53;;
76459;SDS011;65299;46.084;18.762;2023-11-21T08:28:34;14.93;;;8.68;;
76459;SDS011;65299;46.084;18.762;2023-11-21T08:31:35;12.43;;;7.07;;
76459;SDS011;65299;46.084;18.762;2023-11-21T08:34:36;12.70;;;7.07;;
76459;SDS011;65299;46.084;18.762;2023-11-21T08:37:36;15.13;;;8.13;;
76459;SDS011;65299;46.084;18.762;2023-11-21T08:40:38;18.80;;;8.48;;
76459;SDS011;65299;46.084;18.762;2023-11-21T08:43:39;12.60;;;7.33;;
76459;SDS011;65299;46.084;18.762;2023-11-21T08:46:39;13.93;;;6.53;;
76459;SDS011;65299;46.084;18.762;2023-11-21T08:49:41;10.82;;;5.40;;
76459;SDS011;65299;46.084;18.762;2023-11-21T08:52:42;12.47;;;3.67;;
76459;SDS011;65299;46.084;18.762;2023-11-21T08:55:44;13.63;;;5.47;;
76459;SDS011;65299;46.084;18.762;2023-11-21T08:58:45;18.10;;;7.90;;
76459;SDS011;65299;46.084;18.762;2023-11-21T09:01:47;18.60;;;8.23;;
76459;SDS011;65299;46.084;18.762;2023-11-21T09:04:47;21.87;;;10.90;;
76459;SDS011;65299;46.084;18.762;2023-11-21T09:07:48;24.08;;;11.27;;
76459;SDS011;65299;46.084;18.762;2023-11-21T09:10:48;14.67;;;7.47;;
76459;SDS011;65299;46.084;18.762;2023-11-21T09:13:49;8.87;;;3.90;;
76459;SDS011;65299;46.084;18.762;2023-11-21T09:16:49;8.67;;;4.73;;
76459;SDS011;65299;46.084;18.762;2023-11-21T09:19:50;6.88;;;4.00;;
76459;SDS011;65299;46.084;18.762;2023-11-21T09:22:51;11.27;;;6.73;;
76459;SDS011;65299;46.084;18.762;2023-11-21T09:25:51;13.80;;;7.20;;
76459;SDS011;65299;46.084;18.762;2023-11-21T09:28:54;14.77;;;7.97;;
76459;SDS011;65299;46.084;18.762;2023-11-21T09:31:56;12.87;;;6.77;;
76459;SDS011;65299;46.084;18.762;2023-11-21T09:34:59;8.75;;;3.92;;
76459;SDS011;65299;46.084;18.762;2023-11-21T09:38:02;9.25;;;3.90;;
76459;SDS011;65299;46.084;18.762;2023-11-21T09:41:05;6.60;;;3.38;;
76459;SDS011;65299;46.084;18.762;2023-11-21T09:44:18;12.43;;;6.28;;
76459;SDS011;65299;46.084;18.762;2023-11-21T09:47:24;19.00;;;9.40;;
76459;SDS011;65299;46.084;18.762;2023-11-21T09:50:25;14.00;;;7.05;;
76459;SDS011;65299;46.084;18.762;2023-11-21T09:53:26;13.60;;;6.40;;
76459;SDS011;65299;46.084;18.762;2023-11-21T09:56:30;11.17;;;6.13;;
76459;SDS011;65299;46.084;18.762;2023-11-21T09:59:32;7.18;;;4.50;;
76459;SDS011;65299;46.084;18.762;2023-11-21T10:02:33;21.67;;;9.82;;
76459;SDS011;65299;46.084;18.762;2023-11-21T10:05:36;15.30;;;8.38;;
76459;SDS011;65299;46.084;18.762;2023-11-21T10:08:37;12.48;;;6.72;;
76459;SDS011;65299;46.084;18.762;2023-11-21T10:11:41;8.00;;;4.57;;
76459;SDS011;65299;46.084;18.762;2023-11-21T10:14:43;12.45;;;7.28;;
76459;SDS011;65299;46.084;18.762;2023-11-21T10:17:49;5.18;;;2.40;;
76459;SDS011;65299;46.084;18.762;2023-11-21T10:20:50;4.75;;;2.35;;
76459;SDS011;65299;46.084;18.762;2023-11-21T10:23:54;4.40;;;2.57;;
76459;SDS011;65299;46.084;18.762;2023-11-21T10:26:55;5.63;;;2.85;;
76459;SDS011;65299;46.084;18.762;2023-11-21T10:29:56;6.73;;;2.80;;
76459;SDS011;65299;46.084;18.762;2023-11-21T10:32:58;9.23;;;3.60;;
76459;SDS011;65299;46.084;18.762;2023-11-21T10:36:00;9.60;;;2.90;;
76459;SDS011;65299;46.084;18.762;2023-11-21T10:39:01;7.25;;;3.50;;
76459;SDS011;65299;46.084;18.762;2023-11-21T10:42:02;9.33;;;4.90;;
76459;SDS011;65299;46.084;18.762;2023-11-21T10:45:03;9.33;;;4.97;;
76459;SDS011;65299;46.084;18.762;2023-11-21T10:48:13;14.43;;;7.22;;
76459;SDS011;65299;46.084;18.762;2023-11-21T10:51:17;20.30;;;11.98;;
76459;SDS011;65299;46.084;18.762;2023-11-21T10:54:25;18.90;;;10.20;;
76459;SDS011;65299;46.084;18.762;2023-11-21T10:57:26;7.55;;;4.57;;
76459;SDS011;65299;46.084;18.762;2023-11-21T11:00:28;11.68;;;6.93;;
76459;SDS011;65299;46.084;18.762;2023-11-21T11:03:29;6.88;;;2.83;;
76459;SDS011;65299;46.084;18.762;2023-11-21T11:06:30;5.75;;;2.10;;
76459;SDS011;65299;46.084;18.762;2023-11-21T11:09:32;3.60;;;1.90;;
76459;SDS011;65299;46.084;18.762;2023-11-21T11:12:35;2.70;;;1.40;;
76459;SDS011;65299;46.084;18.762;2023-11-21T11:15:36;2.42;;;1.25;;
76459;SDS011;65299;46.084;18.762;2023-11-21T11:18:37;3.88;;;2.15;;
76459;SDS011;65299;46.084;18.762;2023-11-21T11:21:53;2.43;;;1.10;;
76459;SDS011;65299;46.084;18.762;2023-11-21T11:28:48;3.83;;;1.40;;
76459;SDS011;65299;46.084;18.762;2023-11-21T11:35:44;3.78;;;2.05;;
76459;SDS011;65299;46.084;18.762;2023-11-21T11:38:53;5.60;;;2.00;;
76459;SDS011;65299;46.084;18.762;2023-11-21T11:41:56;4.50;;;2.15;;
76459;SDS011;65299;46.084;18.762;2023-11-21T11:44:58;7.73;;;2.93;;
76459;SDS011;65299;46.084;18.762;2023-11-21T11:48:02;5.68;;;2.42;;
76459;SDS011;65299;46.084;18.762;2023-11-21T11:51:09;5.60;;;2.00;;
76459;SDS011;65299;46.084;18.762;2023-11-21T11:54:11;5.25;;;1.77;;
76459;SDS011;65299;46.084;18.762;2023-11-21T11:57:13;3.45;;;1.88;;
76459;SDS011;65299;46.084;18.762;2023-11-21T12:00:20;4.07;;;2.03;;
76459;SDS011;65299;46.084;18.762;2023-11-21T12:03:27;6.32;;;1.83;;
76459;SDS011;65299;46.084;18.762;2023-11-21T12:06:34;2.25;;;1.05;;
76459;SDS011;65299;46.084;18.762;2023-11-21T12:09:35;8.90;;;5.07;;
76459;SDS011;65299;46.084;18.762;2023-11-21T12:12:37;9.80;;;6.07;;
76459;SDS011;65299;46.084;18.762;2023-11-21T12:15:41;15.43;;;8.70;;
76459;SDS011;65299;46.084;18.762;2023-11-21T12:18:42;11.57;;;6.90;;
76459;SDS011;65299;46.084;18.762;2023-11-21T12:21:43;12.90;;;6.60;;
76459;SDS011;65299;46.084;18.762;2023-11-21T12:24:44;12.32;;;7.90;;
76459;SDS011;65299;46.084;18.762;2023-11-21T12:27:45;15.00;;;7.93;;
76459;SDS011;65299;46.084;18.762;2023-11-21T12:30:46;13.48;;;7.13;;
76459;SDS011;65299;46.084;18.762;2023-11-21T12:33:46;17.67;;;8.57;;
76459;SDS011;65299;46.084;18.762;2023-11-21T12:36:47;20.53;;;10.90;;
76459;SDS011;65299;46.084;18.762;2023-11-21T12:39:49;16.33;;;10.88;;
76459;SDS011;65299;46.084;18.762;2023-11-21T12:42:51;13.30;;;8.43;;
76459;SDS011;65299;46.084;18.762;2023-11-21T12:46:04;9.60;;;5.57;;
76459;SDS011;65299;46.084;18.762;2023-11-21T12:49:06;10.82;;;6.45;;
76459;SDS011;65299;46.084;18.762;2023-11-21T12:52:06;6.97;;;4.50;;
76459;SDS011;65299;46.084;18.762;2023-11-21T12:55:06;5.57;;;2.63;;
76459;SDS011;65299;46.084;18.762;2023-11-21T12:58:09;5.50;;;3.15;;
76459;SDS011;65299;46.084;18.762;2023-11-21T13:01:11;11.60;;;6.70;;
76459;SDS011;65299;46.084;18.762;2023-11-21T13:04:18;5.80;;;2.60;;
76459;SDS011;65299;46.084;18.762;2023-11-21T13:07:19;6.85;;;3.75;;
76459;SDS011;65299;46.084;18.762;2023-11-21T13:10:24;4.53;;;2.95;;
76459;SDS011;65299;46.084;18.762;2023-11-21T13:13:30;8.95;;;5.18;;
76459;SDS011;65299;46.084;18.762;2023-11-21T13:16:31;5.87;;;3.03;;
76459;SDS011;65299;46.084;18.762;2023-11-21T13:19:31;5.47;;;2.40;;
76459;SDS011;65299;46.084;18.762;2023-11-21T13:22:32;5.30;;;2.43;;
76459;SDS011;65299;46.084;18.762;2023-11-21T13:25:33;2.10;;;1.30;;
76459;SDS011;65299;46.084;18.762;2023-11-21T13:28:33;4.30;;;1.88;;
76459;SDS011;65299;46.084;18.762;2023-11-21T13:31:35;1.70;;;0.90;;
76459;SDS011;65299;46.084;18.762;2023-11-21T13:34:37;3.20;;;1.50;;
76459;SDS011;65299;46.084;18.762;2023-11-21T13:37:38;3.45;;;1.83;;
76459;SDS011;65299;46.084;18.762;2023-11-21T13:40:40;3.25;;;1.75;;
76459;SDS011;65299;46.084;18.762;2023-11-21T13:43:46;3.75;;;1.90;;
76459;SDS011;65299;46.084;18.762;2023-11-21T13:46:52;7.33;;;2.50;;
76459;SDS011;65299;46.084;18.762;2023-11-21T13:49:53;7.88;;;2.97;;
76459;SDS011;65299;46.084;18.762;2023-11-21T13:52:53;7.17;;;3.77;;
76459;SDS011;65299;46.084;18.762;2023-11-21T13:55:54;7.60;;;3.90;;
76459;SDS011;65299;46.084;18.762;2023-11-21T13:58:55;7.95;;;4.05;;
76459;SDS011;65299;46.084;18.762;2023-11-21T14:01:56;9.73;;;4.40;;
76459;SDS011;65299;46.084;18.762;2023-11-21T14:05:00;5.22;;;2.42;;
76459;SDS011;65299;46.084;18.762;2023-11-21T14:08:04;13.50;;;5.00;;
76459;SDS011;65299;46.084;18.762;2023-11-21T14:11:05;10.27;;;4.40;;
76459;SDS011;65299;46.084;18.762;2023-11-21T14:14:06;8.27;;;3.60;;
76459;SDS011;65299;46.084;18.762;2023-11-21T14:17:07;5.77;;;3.10;;
76459;SDS011;65299;46.084;18.762;2023-11-21T14:20:07;4.00;;;2.20;;
76459;SDS011;65299;46.084;18.762;2023-11-21T14:23:15;3.40;;;1.88;;
76459;SDS011;65299;46.084;18.762;2023-11-21T14:26:16;5.17;;;2.13;;
76459;SDS011;65299;46.084;18.762;2023-11-21T14:29:17;11.75;;;4.15;;
76459;SDS011;65299;46.084;18.762;2023-11-21T14:32:23;6.35;;;3.30;;
76459;SDS011;65299;46.084;18.762;2023-11-21T14:35:25;6.38;;;3.08;;
76459;SDS011;65299;46.084;18.762;2023-11-21T14:38:26;7.13;;;3.33;;
76459;SDS011;65299;46.084;18.762;2023-11-21T14:41:28;6.60;;;2.65;;
76459;SDS011;65299;46.084;18.762;2023-11-21T14:44:29;7.15;;;4.50;;
76459;SDS011;65299;46.084;18.762;2023-11-21T14:47:34;22.52;;;13.93;;
76459;SDS011;65299;46.084;18.762;2023-11-21T14:50:38;18.15;;;11.45;;
76459;SDS011;65299;46.084;18.762;2023-11-21T14:53:38;11.57;;;5.40;;
76459;SDS011;65299;46.084;18.762;2023-11-21T14:56:54;11.57;;;7.18;;
76459;SDS011;65299;46.084;18.762;2023-11-21T14:59:54;14.93;;;10.20;;
76459;SDS011;65299;46.084;18.762;2023-11-21T15:02:58;11.23;;;6.68;;
76459;SDS011;65299;46.084;18.762;2023-11-21T15:06:02;7.60;;;5.07;;
76459;SDS011;65299;46.084;18.762;2023-11-21T15:09:19;9.52;;;5.50;;
76459;SDS011;65299;46.084;18.762;2023-11-21T15:12:31;12.00;;;6.20;;
76459;SDS011;65299;46.084;18.762;2023-11-21T15:15:34;11.40;;;6.78;;
76459;SDS011;65299;46.084;18.762;2023-11-21T15:18:36;13.27;;;7.97;;
76459;SDS011;65299;46.084;18.762;2023-11-21T15:21:38;19.38;;;10.32;;
76459;SDS011;65299;46.084;18.762;2023-11-21T15:24:38;10.67;;;5.73;;
76459;SDS011;65299;46.084;18.762;2023-11-21T15:27:40;21.10;;;9.10;;
76459;SDS011;65299;46.084;18.762;2023-11-21T15:30:41;34.50;;;13.13;;
76459;SDS011;65299;46.084;18.762;2023-11-21T15:33:41;15.82;;;7.63;;
76459;SDS011;65299;46.084;18.762;2023-11-21T15:36:43;12.33;;;6.20;;
76459;SDS011;65299;46.084;18.762;2023-11-21T15:39:44;11.63;;;6.10;;
76459;SDS011;65299;46.084;18.762;2023-11-21T15:42:45;12.50;;;7.20;;
76459;SDS011;65299;46.084;18.762;2023-11-21T15:45:45;15.50;;;8.90;;
76459;SDS011;65299;46.084;18.762;2023-11-21T15:48:46;9.47;;;5.83;;
76459;SDS011;65299;46.084;18.762;2023-11-21T15:51:53;8.98;;;4.18;;
76459;SDS011;65299;46.084;18.762;2023-11-21T15:54:53;12.83;;;6.50;;
76459;SDS011;65299;46.084;18.762;2023-11-21T15:57:54;11.15;;;5.78;;
76459;SDS011;65299;46.084;18.762;2023-11-21T16:00:54;11.27;;;4.47;;
76459;SDS011;65299;46.084;18.762;2023-11-21T16:03:56;9.30;;;5.28;;
76459;SDS011;65299;46.084;18.762;2023-11-21T16:06:57;13.40;;;7.13;;
76459;SDS011;65299;46.084;18.762;2023-11-21T16:09:59;12.52;;;6.20;;
76459;SDS011;65299;46.084;18.762;2023-11-21T16:12:59;12.33;;;6.33;;
76459;SDS011;65299;46.084;18.762;2023-11-21T16:16:00;10.50;;;4.88;;
76459;SDS011;65299;46.084;18.762;2023-11-21T16:19:01;10.07;;;5.03;;
76459;SDS011;65299;46.084;18.762;2023-11-21T16:22:02;11.57;;;5.80;;
76459;SDS011;65299;46.084;18.762;2023-11-21T16:25:03;13.63;;;7.70;;
76459;SDS011;65299;46.084;18.762;2023-11-21T16:28:06;16.57;;;9.60;;
76459;SDS011;65299;46.084;18.762;2023-11-21T16:31:07;13.18;;;6.25;;
76459;SDS011;65299;46.084;18.762;2023-11-21T16:34:11;11.13;;;5.00;;
76459;SDS011;65299;46.084;18.762;2023-11-21T16:37:15;7.13;;;3.73;;
76459;SDS011;65299;46.084;18.762;2023-11-21T16:40:16;8.38;;;4.32;;
76459;SDS011;65299;46.084;18.762;2023-11-21T16:43:19;11.68;;;5.13;;
76459;SDS011;65299;46.084;18.762;2023-11-21T16:46:19;7.70;;;3.23;;
76459;SDS011;65299;46.084;18.762;2023-11-21T16:49:19;4.53;;;2.80;;
76459;SDS011;65299;46.084;18.762;2023-11-21T16:52:20;6.97;;;2.60;;
76459;SDS011;65299;46.084;18.762;2023-11-21T16:55:22;5.18;;;2.50;;
76459;SDS011;65299;46.084;18.762;2023-11-21T16:58:23;6.32;;;2.60;;
76459;SDS011;65299;46.084;18.762;2023-11-21T17:01:24;6.07;;;2.80;;
76459;SDS011;65299;46.084;18.762;2023-11-21T17:04:25;5.72;;;2.35;;
76459;SDS011;65299;46.084;18.762;2023-11-21T17:07:26;4.05;;;2.10;;
76459;SDS011;65299;46.084;18.762;2023-11-21T17:10:29;5.60;;;2.30;;
76459;SDS011;65299;46.084;18.762;2023-11-21T17:13:29;5.47;;;2.47;;
76459;SDS011;65299;46.084;18.762;2023-11-21T17:16:30;4.50;;;2.50;;
76459;SDS011;65299;46.084;18.762;2023-11-21T17:19:30;5.40;;;2.47;;
76459;SDS011;65299;46.084;18.762;2023-11-21T17:22:33;7.88;;;2.88;;
76459;SDS011;65299;46.084;18.762;2023-11-21T17:25:37;7.00;;;3.05;;
76459;SDS011;65299;46.084;18.762;2023-11-21T17:28:37;7.30;;;3.70;;
76459;SDS011;65299;46.084;18.762;2023-11-21T17:31:38;12.80;;;7.00;;
76459;SDS011;65299;46.084;18.762;2023-11-21T17:34:38;17.67;;;8.60;;
76459;SDS011;65299;46.084;18.762;2023-11-21T17:37:39;16.77;;;8.23;;
76459;SDS011;65299;46.084;18.762;2023-11-21T17:40:40;15.47;;;7.60;;
76459;SDS011;65299;46.084;18.762;2023-11-21T17:43:40;10.32;;;5.82;;
76459;SDS011;65299;46.084;18.762;2023-11-21T17:46:42;11.07;;;5.80;;